Brasie Corners, New York
Current Conditions -  °F | °C
As of 11:58 PM on Thursday 30 Oct 2014 (Local Time) from KGTB Reporting Station
Clear Clear  
Wind Chill: 31°   Ceiling: Unl
Heat Index: 35°   Visibility: 10mi
Dew Point: 34°   Wind: 5mph
Humidity: 97%   Direction: 200°SSW
Pressure: 30"   Gusts: NA
Location:  44.3309°N, 75.4775°W
Report Text: KGTB 310358Z AUTO 20004KT 10SM CLR 02/01 A3000 RMK AO2 SLP165 T00170013
Loading
Personal Weather Stations






























Interactive Weather Map
Tropical Storm Tracking
New forecast layout! Learn more

10-Day Weather Forecast

Advertisements
Track Severe Weather on mobile